Time;durP1;ratioP1;P1;durP2;ratioP2;P2;SDS_P1;SDS_P2;PMS_P1;PMS_P2;Temp;Humidity;BMP_temperature;BMP_pressure;BME280_temperature;BME280_humidity;BME280_pressure;Samples;Min_cycle;Max_cycle;Signal;HPM_P1;HPM_P2
2023/03/25 00:01:28;;;;;;;8.90;6.10;;;;;;;10.76;83.12;97966.65;269613;1277;22395;-86
2023/03/25 00:07:53;;;;;;;8.40;6.40;;;;;;;10.62;83.48;97969.63;270906;1277;22233;-84
2023/03/25 00:13:55;;;;;;;9.70;5.70;;;;;;;10.50;83.80;97962.96;270001;1278;22647;-85
2023/03/25 00:19:59;;;;;;;9.50;6.40;;;;;;;10.43;84.33;97954.16;271457;1277;22528;-85
2023/03/25 00:26:02;;;;;;;10.70;5.80;;;;;;;10.43;84.48;97943.69;270929;1275;22363;-85
2023/03/25 00:32:04;;;;;;;12.10;6.00;;;;;;;10.46;85.19;97939.30;269833;1271;23244;-85
2023/03/25 00:38:35;;;;;;;8.30;6.00;;;;;;;10.49;85.31;97935.60;271401;1272;23006;-85
2023/03/25 00:45:18;;;;;;;9.00;6.00;;;;;;;10.47;85.61;97931.47;271274;1271;25453;-85
2023/03/25 00:51:24;;;;;;;7.50;5.60;;;;;;;10.46;86.16;97927.58;272270;1271;23087;-86
2023/03/25 00:57:27;;;;;;;8.50;5.80;;;;;;;10.42;86.09;97927.05;272010;1271;22415;-86
2023/03/25 01:03:29;;;;;;;9.80;5.90;;;;;;;10.35;86.23;97932.79;271353;1270;22448;-86
2023/03/25 01:09:31;;;;;;;10.80;6.50;;;;;;;10.28;86.61;97932.52;271044;1272;22417;-85
2023/03/25 01:15:34;;;;;;;11.00;6.20;;;;;;;10.31;87.08;97939.84;272654;1271;22466;-87
2023/03/25 01:21:36;;;;;;;11.20;6.80;;;;;;;10.30;86.27;97940.08;271675;1270;22577;-85
2023/03/25 01:27:52;;;;;;;11.90;7.60;;;;;;;10.30;87.14;97931.80;270831;1272;23776;-85
2023/03/25 01:33:54;;;;;;;13.20;8.60;;;;;;;10.40;87.97;97930.65;270362;1271;24158;-85
2023/03/25 01:39:56;;;;;;;11.70;8.40;;;;;;;10.48;88.70;97930.14;270264;1270;22553;-85
2023/03/25 01:45:58;;;;;;;14.20;8.80;;;;;;;10.51;88.87;97922.61;270593;1271;23946;-86
2023/03/25 15:37:53;;;;;;;2.50;0.90;;;;;;;13.68;50.10;97908.39;265387;1305;545022;-85
2023/03/25 15:44:19;;;;;;;3.30;1.00;;;;;;;13.44;50.20;97908.52;271642;1280;22327;-85
2023/03/25 15:50:30;;;;;;;5.00;1.00;;;;;;;13.29;50.54;97914.43;271992;1278;150080;-85
2023/03/25 15:56:40;;;;;;;4.40;1.50;;;;;;;13.20;51.32;97918.11;271246;1279;23718;-86
2023/03/25 16:03:42;;;;;;;7.40;1.80;;;;;;;13.03;51.61;97923.63;271042;1276;22392;-87
2023/03/25 16:10:34;;;;;;;7.60;2.10;;;;;;;12.85;52.18;97934.33;269628;1276;24384;-85
2023/03/25 16:16:57;;;;;;;6.90;2.90;;;;;;;12.72;52.68;97931.70;269581;1281;22475;-85
2023/03/25 16:22:59;;;;;;;10.80;3.30;;;;;;;12.64;53.51;97933.22;269372;1276;24327;-86
2023/03/25 16:29:52;;;;;;;16.60;3.80;;;;;;;12.58;54.47;97943.11;271560;1271;22441;-86
2023/03/25 16:36:36;;;;;;;12.20;3.30;;;;;;;12.54;54.72;97949.42;272590;1276;22437;-87
2023/03/25 16:42:37;;;;;;;10.30;3.70;;;;;;;12.47;55.22;97947.57;272462;1275;22428;-86
2023/03/25 16:48:47;;;;;;;11.90;3.40;;;;;;;12.42;56.05;97953.75;272429;1276;22470;-85
2023/03/25 16:54:51;;;;;;;11.60;3.70;;;;;;;12.27;56.49;97954.17;272434;1278;22382;-86
2023/03/25 17:00:54;;;;;;;13.20;3.90;;;;;;;12.05;56.59;97959.05;272047;1268;25532;-86
2023/03/25 17:06:59;;;;;;;18.80;4.50;;;;;;;11.85;57.00;97961.63;269716;1273;22544;-86
2023/03/25 17:13:09;;;;;;;13.50;4.50;;;;;;;11.63;57.49;97969.73;269834;1270;23336;-85
2023/03/25 17:19:51;;;;;;;13.70;4.90;;;;;;;11.45;57.99;97965.52;270370;1269;22386;-86
2023/03/25 17:26:18;;;;;;;13.20;5.00;;;;;;;11.22;58.47;97977.27;272598;1272;23885;-86
2023/03/25 17:32:20;;;;;;;8.80;4.70;;;;;;;11.10;58.96;97977.99;270107;1272;22632;-85
2023/03/25 17:38:44;;;;;;;7.60;4.20;;;;;;;11.07;59.35;97981.86;271379;1273;25281;-85
2023/03/25 17:45:26;;;;;;;16.30;4.90;;;;;;;10.99;59.61;97988.09;270386;1273;23033;-85
2023/03/25 17:51:39;;;;;;;16.80;9.10;;;;;;;10.90;60.00;98002.63;272786;1265;22429;-85
2023/03/25 17:57:49;;;;;;;16.30;9.40;;;;;;;10.82;60.26;98004.16;271022;1268;24242;-86
2023/03/25 18:04:09;;;;;;;17.00;9.20;;;;;;;10.68;60.93;98002.83;271974;1267;23327;-86
2023/03/25 18:10:17;;;;;;;18.20;8.70;;;;;;;10.54;61.20;97999.21;271646;1266;22509;-86
2023/03/25 18:16:45;;;;;;;17.60;8.10;;;;;;;10.46;61.75;98001.13;271316;1266;23009;-85
2023/03/25 18:22:47;;;;;;;17.50;9.20;;;;;;;10.44;62.25;98001.84;272034;1268;22561;-87
2023/03/25 18:28:51;;;;;;;16.30;9.20;;;;;;;10.43;62.68;98001.94;272527;1266;23469;-86
2023/03/25 18:34:54;;;;;;;26.80;8.10;;;;;;;10.41;63.18;97997.63;272483;1266;22177;-86
2023/03/25 18:40:56;;;;;;;20.90;8.30;;;;;;;10.40;63.54;97994.50;272815;1265;22559;-86
2023/03/25 18:46:57;;;;;;;25.10;9.50;;;;;;;10.38;63.65;97992.56;272377;1267;22493;-84
2023/03/25 18:52:58;;;;;;;22.50;9.10;;;;;;;10.32;64.16;97995.70;271330;1267;23755;-86
2023/03/25 18:59:00;;;;;;;21.40;9.30;;;;;;;10.33;64.34;98000.33;272157;1265;25213;-85
2023/03/25 19:05:01;;;;;;;19.70;10.40;;;;;;;10.25;64.11;98006.13;271287;1267;22236;-86
2023/03/25 19:11:03;;;;;;;20.10;10.70;;;;;;;10.14;64.65;98016.95;270599;1267;23651;-85
2023/03/25 19:17:04;;;;;;;19.70;11.20;;;;;;;10.06;65.53;98019.77;271593;1267;22347;-86
2023/03/25 19:23:23;;;;;;;21.50;12.10;;;;;;;9.92;65.10;98013.23;272954;1266;24126;-85
2023/03/25 19:29:24;;;;;;;21.50;12.10;;;;;;;9.72;65.19;98010.21;271189;1268;22570;-85
2023/03/25 19:35:41;;;;;;;34.40;14.10;;;;;;;9.61;65.88;98017.02;270549;1266;22547;-85
2023/03/25 19:41:43;;;;;;;29.30;14.60;;;;;;;9.52;66.37;98018.03;273012;1266;22512;-86
2023/03/25 19:48:03;;;;;;;24.60;13.10;;;;;;;9.52;67.03;98020.00;270875;1267;22581;-85
2023/03/25 19:54:04;;;;;;;19.70;11.20;;;;;;;9.53;66.64;98019.84;271819;1266;22472;-86
2023/03/25 20:00:46;;;;;;;22.60;10.90;;;;;;;9.48;67.03;98015.92;271563;1267;23660;-85
2023/03/25 20:06:47;;;;;;;16.60;9.80;;;;;;;9.40;67.96;98021.08;272438;1267;23366;-85
2023/03/25 20:13:09;;;;;;;18.40;8.80;;;;;;;9.25;68.07;98022.71;270863;1266;22591;-84
2023/03/25 20:19:10;;;;;;;25.20;10.30;;;;;;;9.06;67.93;98017.23;270856;1267;22556;-84
2023/03/25 20:25:12;;;;;;;20.20;10.20;;;;;;;8.85;68.03;98017.51;270849;1266;22553;-88
2023/03/25 20:31:21;;;;;;;20.70;10.10;;;;;;;8.64;68.36;98015.02;272118;1267;25248;-85
2023/03/25 20:37:24;;;;;;;20.60;10.00;;;;;;;8.47;69.06;98011.30;271486;1267;22606;-85
2023/03/25 20:43:25;;;;;;;24.40;10.30;;;;;;;8.39;69.43;98010.64;271457;1267;23145;-85
2023/03/25 20:50:09;;;;;;;21.20;10.10;;;;;;;8.26;69.52;98018.07;271625;1265;24151;-84
2023/03/25 20:56:31;;;;;;;21.90;9.80;;;;;;;8.13;69.53;98021.09;271251;1266;25255;-84
2023/03/25 21:02:53;;;;;;;19.70;9.70;;;;;;;8.15;70.12;98019.85;271793;1267;22197;-85
2023/03/25 21:08:54;;;;;;;23.30;11.10;;;;;;;8.30;70.84;98026.11;271596;1266;22562;-85
2023/03/25 21:14:55;;;;;;;18.00;10.40;;;;;;;8.42;71.42;98031.16;271357;1266;22528;-84
2023/03/25 21:21:05;;;;;;;19.20;10.40;;;;;;;8.50;71.62;98035.40;271769;1265;23347;-85
2023/03/25 21:27:06;;;;;;;23.50;10.80;;;;;;;8.55;72.50;98036.13;271973;1267;25329;-84
2023/03/25 21:33:36;;;;;;;22.70;10.40;;;;;;;8.57;72.72;98038.00;271123;1266;23326;-85
2023/03/25 21:40:23;;;;;;;21.10;10.50;;;;;;;8.55;71.94;98038.61;272206;1266;25440;-84
2023/03/25 21:46:54;;;;;;;22.60;11.50;;;;;;;8.57;71.53;98037.84;272865;1266;22530;-85
2023/03/25 21:52:55;;;;;;;29.70;14.70;;;;;;;8.60;71.75;98051.25;272471;1266;22424;-87
2023/03/25 21:59:00;;;;;;;25.10;13.10;;;;;;;8.55;71.95;98058.55;272244;1266;23441;-85
2023/03/25 22:05:02;;;;;;;23.30;10.80;;;;;;;8.50;72.14;98063.07;271998;1265;23743;-87
2023/03/25 22:11:06;;;;;;;13.80;6.50;;;;;;;8.61;71.69;98071.92;272960;1266;22417;-84
2023/03/25 22:17:07;;;;;;;6.90;2.60;;;;;;;8.76;71.68;98074.63;272701;1252;22554;-84
2023/03/25 22:23:13;;;;;;;4.20;2.10;;;;;;;8.88;71.38;98082.39;271247;1265;25284;-85
2023/03/25 22:29:54;;;;;;;4.60;2.10;;;;;;;8.98;71.14;98086.16;270154;1266;23397;-85
2023/03/25 22:36:37;;;;;;;7.10;2.40;;;;;;;8.98;70.94;98088.73;270572;1254;22774;-86
2023/03/25 22:42:55;;;;;;;6.50;3.10;;;;;;;8.91;70.74;98099.70;273178;1263;22232;-85
2023/03/25 22:48:56;;;;;;;9.40;4.90;;;;;;;8.82;70.37;98105.91;273503;1266;22659;-86
2023/03/25 22:54:57;;;;;;;9.90;4.60;;;;;;;8.72;70.43;98106.88;273945;1267;23395;-85
2023/03/25 23:01:27;;;;;;;14.10;4.10;;;;;;;8.62;70.53;98108.87;271553;1266;23211;-84
2023/03/25 23:07:43;;;;;;;4.90;1.40;;;;;;;8.49;70.84;98105.85;271273;1266;22531;-84
2023/03/25 23:14:05;;;;;;;8.40;1.30;;;;;;;8.32;70.56;98102.32;270794;1254;23558;-84
2023/03/25 23:20:47;;;;;;;9.90;1.80;;;;;;;8.17;70.68;98093.95;271003;1267;25247;-84
2023/03/25 23:26:50;;;;;;;7.80;2.30;;;;;;;7.98;71.00;98082.14;271101;1266;25397;-84
2023/03/25 23:32:51;;;;;;;6.30;2.20;;;;;;;7.78;71.42;98089.33;271744;1265;22576;-85
2023/03/25 23:38:52;;;;;;;5.50;2.20;;;;;;;7.68;71.71;98092.27;270968;1266;25340;-84
2023/03/25 23:44:53;;;;;;;10.60;2.10;;;;;;;7.59;72.24;98095.86;272883;1266;22374;-85
2023/03/25 23:50:55;;;;;;;8.10;1.80;;;;;;;7.62;72.62;98095.89;274150;1267;22413;-84
2023/03/25 23:56:57;;;;;;;3.60;1.40;;;;;;;7.72;72.90;98105.00;273505;1265;22570;-84
